createdAt,value
2019-04-10T00:00:51.230Z,99.90
2019-04-10T00:03:28.102Z,99.90
2019-04-10T00:05:50.065Z,99.90
2019-04-10T00:08:18.456Z,99.90
2019-04-10T00:10:47.886Z,99.90
2019-04-10T00:13:16.457Z,99.90
2019-04-10T00:15:44.863Z,99.90
2019-04-10T00:18:13.712Z,99.90
2019-04-10T00:20:42.695Z,99.90
2019-04-10T00:23:11.163Z,99.90
2019-04-10T00:25:39.568Z,99.90
2019-04-10T00:28:08.162Z,99.90
2019-04-10T00:30:37.570Z,99.90
2019-04-10T00:33:06.052Z,99.90
2019-04-10T00:35:35.162Z,99.90
2019-04-10T00:38:03.686Z,99.90
2019-04-10T00:40:33.030Z,99.90
2019-04-10T00:43:02.302Z,99.90
2019-04-10T00:45:30.847Z,99.90
2019-04-10T00:47:59.573Z,99.90
2019-04-10T00:50:28.686Z,99.90
2019-04-10T00:52:57.115Z,99.90
2019-04-10T00:55:25.803Z,99.90
2019-04-10T00:57:54.755Z,99.90
2019-04-10T01:00:23.538Z,99.90
2019-04-10T01:02:53.265Z,99.90
2019-04-10T01:05:22.626Z,99.90
2019-04-10T01:07:51.958Z,99.90
2019-04-10T01:10:20.547Z,99.90
2019-04-10T01:12:49.153Z,99.90
2019-04-10T01:15:18.355Z,99.90
2019-04-10T01:17:47.031Z,99.90
2019-04-10T01:20:15.626Z,99.90
2019-04-10T01:22:44.183Z,99.90
2019-04-10T01:25:12.650Z,99.90
2019-04-10T01:27:41.180Z,99.90
2019-04-10T01:30:10.509Z,99.90
2019-04-10T01:32:39.802Z,99.90
2019-04-10T01:35:09.798Z,99.90
2019-04-10T01:37:48.655Z,99.90
2019-04-10T01:40:08.953Z,99.90
2019-04-10T01:42:38.843Z,99.90
2019-04-10T01:45:07.494Z,99.90
2019-04-10T01:47:35.904Z,99.90
2019-04-10T01:50:06.254Z,99.90
2019-04-10T01:52:35.370Z,99.90
2019-04-10T01:55:18.098Z,99.90
2019-04-10T01:57:34.622Z,99.90
2019-04-10T02:00:04.658Z,99.90
2019-04-10T02:02:47.667Z,99.90
2019-04-10T02:05:16.574Z,99.90
2019-04-10T02:07:57.833Z,99.90
2019-04-10T02:10:16.915Z,99.90
2019-04-10T02:12:45.642Z,99.90
2019-04-10T02:15:15.822Z,99.90
2019-04-10T02:17:44.556Z,99.90
2019-04-10T02:20:13.274Z,99.90
2019-04-10T02:22:41.690Z,99.90
2019-04-10T02:25:11.572Z,99.90
2019-04-10T02:27:40.552Z,99.90
2019-04-10T02:30:12.702Z,99.90
2019-04-10T02:32:45.179Z,99.90
2019-04-10T02:35:16.569Z,99.90
2019-04-10T02:37:42.979Z,99.90
2019-04-10T02:40:12.796Z,99.90
2019-04-10T02:42:43.113Z,99.90
2019-04-10T02:45:14.526Z,99.90
2019-04-10T02:47:43.243Z,99.90
2019-04-10T02:50:12.597Z,99.90
2019-04-10T02:52:43.322Z,99.90
2019-04-10T02:55:12.286Z,99.90
2019-04-10T02:57:41.399Z,99.90
2019-04-10T03:00:10.895Z,99.90
2019-04-10T03:02:41.674Z,99.90
2019-04-10T03:05:10.834Z,99.90
2019-04-10T03:07:40.387Z,99.90
2019-04-10T03:10:22.913Z,99.90
2019-04-10T03:12:41.058Z,99.90
2019-04-10T03:15:12.566Z,99.90
2019-04-10T03:17:41.981Z,99.90
2019-04-10T03:20:11.045Z,99.90
2019-04-10T03:22:39.525Z,99.90
2019-04-10T03:25:08.919Z,99.90
2019-04-10T03:27:38.545Z,99.90
2019-04-10T03:30:10.361Z,99.90
2019-04-10T03:32:47.724Z,99.90
2019-04-10T03:35:30.443Z,99.90
2019-04-10T03:37:59.405Z,99.90
2019-04-10T03:40:27.872Z,99.90
2019-04-10T03:42:57.177Z,99.90
2019-04-10T03:45:25.756Z,99.90
2019-04-10T03:47:54.172Z,99.90
2019-04-10T03:50:23.604Z,99.90
2019-04-10T03:52:52.073Z,99.90
2019-04-10T03:55:20.990Z,99.90
2019-04-10T03:57:49.571Z,99.90
2019-04-10T04:00:19.466Z,99.90
2019-04-10T04:02:48.451Z,99.90
2019-04-10T04:05:16.850Z,99.90
2019-04-10T04:07:46.279Z,99.90
2019-04-10T04:10:16.194Z,99.90
2019-04-10T04:12:44.702Z,99.90
2019-04-10T04:15:13.584Z,99.90
2019-04-10T04:17:42.284Z,99.90
2019-04-10T04:20:11.072Z,99.90
2019-04-10T04:22:39.487Z,99.90
2019-04-10T04:25:08.673Z,99.90
2019-04-10T04:27:37.789Z,99.90
2019-04-10T04:30:08.429Z,99.90
2019-04-10T04:32:37.992Z,99.90
2019-04-10T04:35:07.015Z,99.90
2019-04-10T04:37:35.768Z,99.90
2019-04-10T04:40:05.804Z,99.90
2019-04-10T04:42:35.135Z,99.90
2019-04-10T04:45:05.162Z,99.90
2019-04-10T04:47:33.632Z,99.90
2019-04-10T04:50:02.025Z,99.90
2019-04-10T04:52:30.583Z,99.90
2019-04-10T04:54:58.992Z,99.90
2019-04-10T04:57:27.420Z,99.90
2019-04-10T04:59:56.846Z,99.90
2019-04-10T05:02:26.229Z,99.90
2019-04-10T05:04:54.686Z,99.90
2019-04-10T05:07:23.095Z,99.90
2019-04-10T05:09:52.480Z,99.90
2019-04-10T05:12:21.009Z,99.90
2019-04-10T05:14:49.392Z,99.90
2019-04-10T05:17:18.318Z,99.90
2019-04-10T05:19:46.933Z,99.90
2019-04-10T05:22:15.365Z,99.90
2019-04-10T05:24:44.642Z,99.90
2019-04-10T05:27:14.102Z,99.90
2019-04-10T05:29:43.023Z,99.90
2019-04-10T05:32:11.515Z,99.90
2019-04-10T05:34:40.419Z,99.90
2019-04-10T05:37:09.395Z,99.90
2019-04-10T05:39:43.411Z,99.90
2019-04-10T05:42:08.485Z,99.90
2019-04-10T05:44:38.138Z,99.90
2019-04-10T05:47:07.403Z,99.90
2019-04-10T05:49:35.881Z,99.90
2019-04-10T05:52:04.310Z,99.90
2019-04-10T05:54:33.330Z,99.90
2019-04-10T05:57:01.929Z,99.90
2019-04-10T05:59:30.355Z,99.90
2019-04-10T06:01:58.964Z,99.90
2019-04-10T06:04:27.533Z,99.90
2019-04-10T06:06:56.844Z,99.90
2019-04-10T06:09:25.345Z,99.90
2019-04-10T06:11:53.741Z,99.90
2019-04-10T06:14:22.143Z,99.90
2019-04-10T06:16:51.043Z,99.90
2019-04-10T06:19:19.970Z,99.90
2019-04-10T06:21:48.493Z,99.90
2019-04-10T06:24:18.191Z,99.90
2019-04-10T06:26:47.824Z,99.90
2019-04-10T06:29:17.137Z,99.90
2019-04-10T06:31:45.680Z,99.90
2019-04-10T06:34:16.129Z,99.90
2019-04-10T06:36:44.258Z,99.90
2019-04-10T06:39:12.913Z,99.90
2019-04-10T06:41:41.454Z,99.90
2019-04-10T06:44:09.948Z,99.90
2019-04-10T06:46:40.114Z,99.90
2019-04-10T06:49:09.285Z,99.90
2019-04-10T06:51:37.751Z,99.90
2019-04-10T06:54:09.901Z,99.90
2019-04-10T06:56:37.439Z,99.90
2019-04-10T06:59:06.656Z,99.90
2019-04-10T07:01:44.343Z,99.90
2019-04-10T07:04:07.592Z,99.90
2019-04-10T07:06:47.116Z,99.90
2019-04-10T07:09:07.608Z,99.90
2019-04-10T07:11:36.595Z,99.90
2019-04-10T07:14:05.106Z,99.90
2019-04-10T07:16:35.375Z,99.90
2019-04-10T07:19:06.944Z,99.90
2019-04-10T07:21:35.534Z,99.90
2019-04-10T07:24:07.607Z,99.90
2019-04-10T07:26:40.344Z,99.90
2019-04-10T07:29:04.955Z,99.90
2019-04-10T07:31:35.310Z,99.90
2019-04-10T07:34:03.487Z,99.90
2019-04-10T07:36:32.907Z,99.90
2019-04-10T07:39:01.528Z,99.90
2019-04-10T07:41:29.983Z,99.90
2019-04-10T07:43:58.736Z,99.90
2019-04-10T07:46:28.213Z,99.90
2019-04-10T07:48:56.759Z,99.90
2019-04-10T07:51:25.634Z,99.90
2019-04-10T07:53:54.088Z,99.90
2019-04-10T07:56:22.511Z,99.90
2019-04-10T07:58:51.769Z,99.90
2019-04-10T08:01:20.338Z,99.90
2019-04-10T08:03:51.319Z,99.90
2019-04-10T08:06:19.776Z,99.90
2019-04-10T08:08:49.206Z,99.90
2019-04-10T08:11:17.671Z,99.90
2019-04-10T08:13:47.053Z,99.90
2019-04-10T08:16:15.546Z,99.90
2019-04-10T08:18:43.980Z,99.90
2019-04-10T08:21:13.446Z,99.90
2019-04-10T08:23:42.351Z,99.90
2019-04-10T08:26:12.110Z,99.90
2019-04-10T08:28:41.293Z,99.90
2019-04-10T08:31:09.783Z,99.90
2019-04-10T08:33:38.622Z,99.90
2019-04-10T08:36:07.466Z,99.90
2019-04-10T08:38:35.986Z,99.90
2019-04-10T08:41:05.146Z,99.90
2019-04-10T08:43:34.132Z,99.90
2019-04-10T08:46:03.500Z,99.90
2019-04-10T08:48:33.033Z,99.90
2019-04-10T08:51:01.571Z,99.90
2019-04-10T08:53:30.668Z,99.90
2019-04-10T08:55:59.488Z,99.90
2019-04-10T08:58:27.882Z,99.90
2019-04-10T09:00:56.696Z,99.90
2019-04-10T09:03:25.121Z,99.90
2019-04-10T09:05:53.531Z,99.90
2019-04-10T09:08:21.945Z,99.90
2019-04-10T09:10:50.484Z,99.90
2019-04-10T09:13:20.051Z,99.90
2019-04-10T09:15:48.611Z,99.90
2019-04-10T09:18:18.220Z,99.90
2019-04-10T09:20:46.927Z,99.90
2019-04-10T09:23:26.580Z,99.90
2019-04-10T09:25:45.539Z,99.90
2019-04-10T09:28:14.062Z,99.90
2019-04-10T09:30:42.807Z,99.90
2019-04-10T09:33:21.037Z,99.90
2019-04-10T09:35:41.716Z,99.90
2019-04-10T09:38:10.580Z,99.90
2019-04-10T09:40:39.098Z,99.90
2019-04-10T09:43:07.511Z,99.90
2019-04-10T09:45:37.097Z,99.90
2019-04-10T09:48:06.441Z,99.90
2019-04-10T09:50:35.421Z,99.90
2019-04-10T09:53:04.195Z,99.90
2019-04-10T09:55:32.577Z,99.90
2019-04-10T09:58:01.900Z,99.90
2019-04-10T10:00:31.845Z,99.90
2019-04-10T10:03:01.471Z,99.90
2019-04-10T10:05:30.713Z,99.90
2019-04-10T10:08:00.177Z,99.90
2019-04-10T10:10:29.045Z,99.90
2019-04-10T10:12:57.590Z,99.90
2019-04-10T10:15:25.984Z,99.90
2019-04-10T10:17:55.073Z,99.90
2019-04-10T10:20:23.840Z,99.90
2019-04-10T10:22:52.307Z,99.90
2019-04-10T10:25:21.553Z,99.90
2019-04-10T10:27:50.972Z,99.90
2019-04-10T10:30:20.234Z,99.90
2019-04-10T10:32:48.958Z,99.90
2019-04-10T10:35:18.818Z,99.10
2019-04-10T10:37:48.384Z,99.00
2019-04-10T10:40:17.769Z,98.50
2019-04-10T10:42:47.682Z,98.70
2019-04-10T10:45:16.761Z,98.90
2019-04-10T10:47:46.360Z,98.40
2019-04-10T10:50:15.176Z,98.20
2019-04-10T10:52:43.882Z,97.10
2019-04-10T10:55:13.583Z,97.10
2019-04-10T10:57:42.040Z,97.00
2019-04-10T11:00:13.218Z,96.60
2019-04-10T11:02:41.738Z,96.40
2019-04-10T11:05:10.731Z,96.30
2019-04-10T11:07:40.425Z,96.50
2019-04-10T11:10:09.789Z,97.00
2019-04-10T11:12:38.453Z,97.20
2019-04-10T11:15:07.791Z,96.60
2019-04-10T11:17:38.162Z,96.50
2019-04-10T11:20:10.121Z,95.40
2019-04-10T11:22:39.743Z,95.80
2019-04-10T11:25:08.519Z,95.80
2019-04-10T11:27:36.928Z,95.40
2019-04-10T11:30:10.034Z,95.80
2019-04-10T11:32:38.746Z,95.20
2019-04-10T11:35:07.790Z,95.10
2019-04-10T11:37:43.507Z,94.10
2019-04-10T11:40:08.704Z,94.00
2019-04-10T11:42:37.327Z,94.20
2019-04-10T11:45:10.267Z,94.30
2019-04-10T11:47:39.342Z,94.40
2019-04-10T11:50:10.328Z,94.70
2019-04-10T11:52:44.730Z,94.50
2019-04-10T11:55:13.759Z,95.50
2019-04-10T11:57:41.692Z,95.40
2019-04-10T12:00:12.268Z,94.80
2019-04-10T12:02:42.434Z,94.90
2019-04-10T12:05:14.775Z,94.60
2019-04-10T12:08:22.086Z,94.90
2019-04-10T12:12:41.703Z,94.50
2019-04-10T12:15:10.269Z,94.00
2019-04-10T12:17:38.737Z,94.60
2019-04-10T12:20:07.390Z,94.30
2019-04-10T12:22:35.916Z,94.20
2019-04-10T12:25:06.839Z,94.20
2019-04-10T12:27:35.378Z,94.20
2019-04-10T12:30:06.928Z,94.10
2019-04-10T12:32:35.362Z,93.80
2019-04-10T12:35:06.831Z,93.90
2019-04-10T12:37:35.386Z,93.70
2019-04-10T12:40:06.227Z,93.90
2019-04-10T12:42:34.639Z,94.20
2019-04-10T12:45:04.864Z,93.60
2019-04-10T12:47:34.254Z,94.70
2019-04-10T12:50:03.803Z,93.90
2019-04-10T12:52:32.432Z,94.30
2019-04-10T12:55:01.959Z,94.40
2019-04-10T12:57:30.757Z,94.50
2019-04-10T13:00:02.953Z,94.70
2019-04-10T13:02:30.303Z,94.70
2019-04-10T13:04:58.850Z,94.60
2019-04-10T13:07:27.595Z,94.00
2019-04-10T13:09:56.071Z,94.50
2019-04-10T13:12:25.057Z,94.20
2019-04-10T13:14:53.555Z,94.00
2019-04-10T13:17:22.711Z,93.80
2019-04-10T13:19:51.448Z,94.00
2019-04-10T13:22:20.135Z,94.30
2019-04-10T13:24:48.575Z,94.20
2019-04-10T13:27:16.978Z,93.90
2019-04-10T13:29:45.387Z,93.70
2019-04-10T13:32:13.949Z,93.60
2019-04-10T13:34:42.373Z,93.20
2019-04-10T13:37:10.777Z,94.00
2019-04-10T13:39:39.270Z,94.40
2019-04-10T13:42:09.185Z,94.40
2019-04-10T13:44:38.399Z,94.60
2019-04-10T13:47:07.093Z,94.40
2019-04-10T13:49:35.745Z,94.50
2019-04-10T13:52:04.211Z,95.60
2019-04-10T13:54:32.649Z,95.00
2019-04-10T13:57:01.501Z,94.30
2019-04-10T13:59:31.076Z,94.80
2019-04-10T14:02:00.674Z,94.50
2019-04-10T14:04:29.258Z,94.40
2019-04-10T14:06:58.131Z,95.20
2019-04-10T14:09:35.892Z,95.10
2019-04-10T14:11:57.584Z,95.00
2019-04-10T14:14:26.738Z,94.60
2019-04-10T14:16:55.223Z,94.40
2019-04-10T14:19:23.712Z,94.00
2019-04-10T14:21:53.377Z,94.20
2019-04-10T14:24:22.041Z,94.10
2019-04-10T14:27:04.118Z,94.10
2019-04-10T14:29:32.543Z,94.10
2019-04-10T14:32:02.825Z,94.00
2019-04-10T14:34:31.370Z,93.90
2019-04-10T14:36:59.800Z,93.20
2019-04-10T14:39:28.285Z,93.20
2019-04-10T14:41:56.682Z,93.50
2019-04-10T14:44:25.077Z,92.70
2019-04-10T14:46:53.878Z,93.40
2019-04-10T14:49:22.302Z,93.40
2019-04-10T14:51:50.709Z,93.10
2019-04-10T14:54:19.624Z,93.20
2019-04-10T14:56:48.461Z,93.00
2019-04-10T14:59:17.816Z,93.10
2019-04-10T15:01:46.316Z,93.20
2019-04-10T15:04:15.060Z,93.10
2019-04-10T15:06:43.841Z,93.30
2019-04-10T15:09:23.158Z,92.90
2019-04-10T15:11:47.253Z,92.40
2019-04-10T15:14:15.727Z,92.60
2019-04-10T15:16:52.929Z,92.50
2019-04-10T15:19:14.289Z,92.50
2019-04-10T15:21:43.025Z,92.30
2019-04-10T15:24:11.466Z,92.90
2019-04-10T15:26:40.391Z,92.60
2019-04-10T15:29:08.934Z,93.00
2019-04-10T15:31:37.562Z,92.70
2019-04-10T15:34:06.126Z,92.60
2019-04-10T15:36:34.597Z,92.80
2019-04-10T15:39:04.770Z,92.70
2019-04-10T15:41:33.426Z,93.40
2019-04-10T15:44:01.828Z,92.80
2019-04-10T15:46:30.312Z,92.70
2019-04-10T15:48:58.712Z,92.20
2019-04-10T15:51:27.988Z,92.30
2019-04-10T15:53:57.047Z,92.10
2019-04-10T15:56:25.707Z,92.30
2019-04-10T15:58:54.175Z,90.80
2019-04-10T16:01:23.739Z,90.60
2019-04-10T16:03:52.768Z,91.30
2019-04-10T16:06:21.235Z,90.70
2019-04-10T16:08:50.353Z,90.80
2019-04-10T16:11:32.392Z,90.50
2019-04-10T16:14:03.088Z,90.30
2019-04-10T16:16:34.442Z,90.30
2019-04-10T16:19:10.485Z,90.40
2019-04-10T16:21:38.970Z,90.20
2019-04-10T16:24:09.088Z,90.30
2019-04-10T16:26:37.486Z,90.50
2019-04-10T16:29:05.895Z,90.80
2019-04-10T16:31:35.468Z,90.60
2019-04-10T16:34:05.070Z,90.50
2019-04-10T16:36:33.585Z,90.00
2019-04-10T16:39:02.908Z,90.70
2019-04-10T16:41:31.484Z,91.40
2019-04-10T16:44:00.546Z,91.20
2019-04-10T16:46:29.895Z,91.60
2019-04-10T16:49:00.277Z,91.50
2019-04-10T16:51:28.799Z,91.20
2019-04-10T16:53:57.190Z,91.00
2019-04-10T16:56:25.606Z,90.60
2019-04-10T16:58:54.217Z,90.30
2019-04-10T17:01:22.703Z,90.30
2019-04-10T17:03:52.081Z,88.30
2019-04-10T17:06:21.717Z,88.50
2019-04-10T17:08:50.377Z,87.90
2019-04-10T17:11:18.895Z,88.00
2019-04-10T17:13:47.340Z,88.90
2019-04-10T17:16:15.749Z,88.80
2019-04-10T17:18:44.159Z,89.00
2019-04-10T17:21:13.091Z,88.20
2019-04-10T17:23:42.746Z,88.90
2019-04-10T17:26:12.822Z,89.20
2019-04-10T17:28:41.357Z,89.30
2019-04-10T17:31:10.902Z,90.00
2019-04-10T17:33:39.346Z,90.50
2019-04-10T17:36:07.828Z,90.50
2019-04-10T17:38:36.535Z,89.50
2019-04-10T17:41:05.121Z,90.40
2019-04-10T17:43:34.944Z,90.30
2019-04-10T17:46:03.706Z,90.60
2019-04-10T17:48:32.145Z,89.20
2019-04-10T17:51:01.596Z,89.30
2019-04-10T17:53:31.414Z,90.50
2019-04-10T17:56:00.132Z,89.40
2019-04-10T17:58:29.551Z,88.60
2019-04-10T18:00:59.884Z,88.30
2019-04-10T18:03:39.570Z,88.50
2019-04-10T18:05:59.306Z,87.80
2019-04-10T18:08:28.750Z,87.40
2019-04-10T18:10:58.711Z,87.90
2019-04-10T18:13:27.233Z,89.80
2019-04-10T18:15:56.938Z,90.40
2019-04-10T18:18:25.634Z,91.40
2019-04-10T18:20:54.041Z,91.50
2019-04-10T18:23:23.065Z,91.90
2019-04-10T18:25:51.910Z,91.90
2019-04-10T18:28:21.363Z,90.10
2019-04-10T18:30:49.827Z,91.20
2019-04-10T18:33:18.364Z,91.60
2019-04-10T18:35:47.084Z,92.40
2019-04-10T18:38:15.803Z,91.00
2019-04-10T18:40:53.040Z,92.10
2019-04-10T18:43:14.355Z,92.10
2019-04-10T18:45:54.828Z,93.50
2019-04-10T18:48:12.901Z,93.30
2019-04-10T18:50:41.301Z,94.20
2019-04-10T18:53:10.862Z,94.50
2019-04-10T18:55:40.544Z,94.20
2019-04-10T18:58:11.639Z,93.50
2019-04-10T19:00:48.565Z,94.70
2019-04-10T19:03:18.716Z,95.00
2019-04-10T19:05:48.909Z,95.00
2019-04-10T19:08:17.408Z,95.70
2019-04-10T19:10:45.824Z,95.70
2019-04-10T19:13:15.079Z,95.50
2019-04-10T19:15:44.756Z,96.20
2019-04-10T19:18:13.484Z,95.90
2019-04-10T19:20:42.866Z,96.10
2019-04-10T19:23:11.355Z,96.20
2019-04-10T19:25:40.677Z,96.40
2019-04-10T19:28:09.238Z,97.40
2019-04-10T19:30:39.495Z,96.50
2019-04-10T19:33:08.071Z,97.10
2019-04-10T19:35:37.287Z,96.60
2019-04-10T19:38:07.200Z,96.90
2019-04-10T19:40:37.113Z,97.10
2019-04-10T19:43:06.162Z,97.40
2019-04-10T19:45:36.217Z,94.60
2019-04-10T19:48:04.930Z,95.50
2019-04-10T19:50:33.339Z,96.50
2019-04-10T19:53:02.607Z,96.40
2019-04-10T19:55:31.647Z,96.10
2019-04-10T19:58:00.234Z,95.80
2019-04-10T20:00:33.063Z,96.10
2019-04-10T20:03:01.620Z,95.90
2019-04-10T20:05:30.146Z,95.80
2019-04-10T20:07:59.600Z,95.90
2019-04-10T20:10:28.240Z,95.80
2019-04-10T20:12:57.218Z,96.10
2019-04-10T20:15:26.700Z,96.10
2019-04-10T20:17:55.238Z,95.90
2019-04-10T20:20:23.642Z,93.40
2019-04-10T20:22:52.070Z,93.90
2019-04-10T20:25:20.474Z,94.50
2019-04-10T20:27:50.122Z,94.90
2019-04-10T20:30:19.923Z,94.40
2019-04-10T20:32:48.339Z,95.10
2019-04-10T20:35:16.746Z,94.80
2019-04-10T20:37:45.183Z,95.20
2019-04-10T20:40:13.855Z,94.80
2019-04-10T20:42:42.749Z,93.00
2019-04-10T20:45:11.497Z,93.50
2019-04-10T20:47:39.905Z,93.30
2019-04-10T20:50:08.369Z,91.50
2019-04-10T20:52:39.428Z,91.90
2019-04-10T20:55:07.469Z,89.70
2019-04-10T20:57:35.873Z,90.10
2019-04-10T21:00:07.441Z,90.80
2019-04-10T21:02:36.198Z,90.10
2019-04-10T21:05:09.566Z,90.70
2019-04-10T21:07:37.483Z,87.50
2019-04-10T21:10:07.095Z,89.30
2019-04-10T21:12:36.437Z,89.80
2019-04-10T21:15:06.402Z,90.40
2019-04-10T21:17:34.816Z,91.40
2019-04-10T21:20:05.552Z,87.50
2019-04-10T21:22:34.137Z,87.50
2019-04-10T21:25:02.867Z,87.60
2019-04-10T21:27:32.027Z,88.00
2019-04-10T21:30:19.995Z,86.90
2019-04-10T21:32:55.302Z,86.30
2019-04-10T21:35:25.055Z,87.30
2019-04-10T21:37:53.518Z,85.50
2019-04-10T21:40:22.770Z,86.60
2019-04-10T21:42:51.896Z,87.60
2019-04-10T21:45:20.384Z,87.50
2019-04-10T21:47:50.172Z,86.80
2019-04-10T21:50:20.012Z,87.40
2019-04-10T21:52:49.672Z,88.60
2019-04-10T21:55:19.339Z,87.90
2019-04-10T21:57:48.896Z,88.80
2019-04-10T22:00:20.601Z,89.20
2019-04-10T22:02:49.115Z,89.60
2019-04-10T22:05:17.587Z,86.20
2019-04-10T22:07:48.264Z,88.30
2019-04-10T22:10:36.546Z,88.50
2019-04-10T22:13:05.899Z,89.00
2019-04-10T22:15:39.473Z,88.90
2019-04-10T22:18:09.269Z,89.60
2019-04-10T22:20:38.059Z,88.80
2019-04-10T22:23:07.538Z,90.30
2019-04-10T22:25:37.290Z,90.10
2019-04-10T22:28:06.374Z,90.90
2019-04-10T22:30:35.216Z,90.90
2019-04-10T22:33:03.996Z,90.80
2019-04-10T22:35:33.482Z,91.20
2019-04-10T22:38:02.611Z,92.10
2019-04-10T22:40:31.251Z,91.90
2019-04-10T22:43:00.638Z,91.80
2019-04-10T22:45:31.273Z,92.40
2019-04-10T22:48:00.717Z,92.90
2019-04-10T22:50:29.332Z,93.80
2019-04-10T22:52:57.761Z,94.00
2019-04-10T22:55:26.234Z,92.70
2019-04-10T22:57:54.845Z,92.70
2019-04-10T23:00:32.644Z,91.90
2019-04-10T23:03:01.454Z,91.80
2019-04-10T23:05:32.034Z,91.50
2019-04-10T23:08:01.138Z,89.70
2019-04-10T23:10:29.855Z,87.40
2019-04-10T23:13:02.899Z,87.20
2019-04-10T23:15:28.609Z,87.30
2019-04-10T23:17:57.302Z,88.20
2019-04-10T23:20:25.985Z,87.90
2019-04-10T23:22:54.872Z,86.40
2019-04-10T23:25:24.575Z,87.60
2019-04-10T23:27:55.167Z,88.40
2019-04-10T23:30:24.520Z,84.70
2019-04-10T23:32:53.542Z,84.80
2019-04-10T23:35:22.204Z,84.70
2019-04-10T23:37:51.096Z,84.20
2019-04-10T23:40:20.894Z,85.00
2019-04-10T23:43:01.277Z,85.80
2019-04-10T23:45:19.980Z,85.80
2019-04-10T23:47:48.679Z,83.60
2019-04-10T23:50:18.437Z,83.90
2019-04-10T23:52:47.883Z,83.60
2019-04-10T23:55:17.664Z,83.20
2019-04-10T23:57:46.421Z,83.80
